createdAt,value
2019-01-16T00:00:43.758Z,-961.47
2019-01-16T00:01:43.912Z,-958.24
2019-01-16T00:02:44.045Z,-961.65
2019-01-16T00:03:44.228Z,-963.79
2019-01-16T00:04:44.355Z,-962.17
2019-01-16T00:05:44.513Z,-956.19
2019-01-16T00:06:44.666Z,-958.29
2019-01-16T00:07:44.795Z,-960.79
2019-01-16T00:08:44.956Z,-956.24
2019-01-16T00:09:45.110Z,-958.88
2019-01-16T00:10:45.294Z,-955.80
2019-01-16T00:11:45.539Z,-962.90
2019-01-16T00:12:45.568Z,-958.72
2019-01-16T00:13:45.715Z,-958.90
2019-01-16T00:14:45.892Z,-957.15
2019-01-16T00:15:46.039Z,-963.73
2019-01-16T00:16:46.202Z,-958.84
2019-01-16T00:17:46.350Z,-961.27
2019-01-16T00:18:46.499Z,-962.51
2019-01-16T00:19:46.698Z,-959.48
2019-01-16T00:20:46.897Z,-961.80
2019-01-16T00:21:46.998Z,-957.43
2019-01-16T00:22:47.113Z,-962.12
2019-01-16T00:23:47.265Z,-960.09
2019-01-16T00:24:47.441Z,-961.35
2019-01-16T00:25:47.572Z,-958.93
2019-01-16T00:26:47.745Z,-958.96
2019-01-16T00:27:47.895Z,-956.88
2019-01-16T00:28:48.188Z,-964.33
2019-01-16T00:29:48.224Z,-963.29
2019-01-16T00:30:48.361Z,-962.64
2019-01-16T00:31:48.517Z,-956.42
2019-01-16T00:32:48.667Z,-954.92
2019-01-16T00:33:48.817Z,-959.03
2019-01-16T00:34:48.992Z,-959.83
2019-01-16T00:35:49.354Z,-960.19
2019-01-16T00:36:49.373Z,-959.53
2019-01-16T00:37:49.438Z,-958.36
2019-01-16T00:38:49.600Z,-959.83
2019-01-16T00:39:49.769Z,-960.11
2019-01-16T00:40:49.906Z,-959.24
2019-01-16T00:41:50.078Z,-954.85
2019-01-16T00:42:50.216Z,-958.05
2019-01-16T00:43:50.386Z,-959.78
2019-01-16T00:44:50.654Z,-960.70
2019-01-16T00:45:50.683Z,-962.40
2019-01-16T00:46:50.860Z,-958.75
2019-01-16T00:47:51.022Z,-960.46
2019-01-16T00:48:51.143Z,-956.14
2019-01-16T00:49:51.347Z,-954.17
2019-01-16T00:50:51.467Z,-958.95
2019-01-16T00:51:51.634Z,-957.51
2019-01-16T00:52:51.823Z,-960.05
2019-01-16T00:53:51.963Z,-961.95
2019-01-16T00:54:52.132Z,-957.15
2019-01-16T00:55:52.287Z,-956.89
2019-01-16T00:56:52.452Z,-960.29
2019-01-16T00:57:52.614Z,-956.09
2019-01-16T00:58:52.781Z,-963.69
2019-01-16T00:59:52.919Z,-959.26
2019-01-16T01:00:53.076Z,-958.79
2019-01-16T01:01:53.321Z,-957.76
2019-01-16T01:02:53.414Z,-959.48
2019-01-16T01:03:53.549Z,-960.01
2019-01-16T01:04:53.721Z,-960.52
2019-01-16T01:05:53.841Z,-965.93
2019-01-16T01:06:54.027Z,-954.40
2019-01-16T01:07:54.181Z,-958.22
2019-01-16T01:08:54.317Z,-954.50
2019-01-16T01:09:54.614Z,-956.77
2019-01-16T01:10:54.603Z,-962.52
2019-01-16T01:11:54.770Z,-963.69
2019-01-16T01:12:54.949Z,-962.18
2019-01-16T01:13:55.081Z,-960.90
2019-01-16T01:14:55.277Z,-958.08
2019-01-16T01:15:55.393Z,-956.12
2019-01-16T01:16:55.534Z,-957.36
2019-01-16T01:17:56.018Z,-959.15
2019-01-16T01:18:55.836Z,-958.45
2019-01-16T01:19:56.019Z,-957.59
2019-01-16T01:20:56.137Z,-956.44
2019-01-16T01:21:56.276Z,-956.43
2019-01-16T01:22:56.467Z,-954.84
2019-01-16T01:23:56.611Z,-955.27
2019-01-16T01:24:56.803Z,-955.51
2019-01-16T01:25:56.972Z,-955.78
2019-01-16T01:26:57.052Z,-958.18
2019-01-16T01:27:57.218Z,-906.28
2019-01-16T01:28:57.367Z,-961.16
2019-01-16T01:29:57.565Z,-961.50
2019-01-16T01:30:57.683Z,-954.46
2019-01-16T01:31:57.842Z,-951.14
2019-01-16T01:32:58.017Z,-959.03
2019-01-16T01:33:58.187Z,-957.22
2019-01-16T01:34:58.357Z,-958.05
2019-01-16T01:35:58.457Z,-953.82
2019-01-16T01:36:58.611Z,-953.08
2019-01-16T01:37:58.781Z,-958.16
2019-01-16T01:38:58.914Z,-955.51
2019-01-16T01:39:59.091Z,-955.53
2019-01-16T01:40:59.223Z,-955.10
2019-01-16T01:41:59.382Z,-959.03
2019-01-16T01:42:59.646Z,-959.05
2019-01-16T01:43:59.660Z,-960.05
2019-01-16T01:44:59.837Z,-960.89
2019-01-16T01:46:00.008Z,-958.71
2019-01-16T01:47:00.141Z,-963.17
2019-01-16T01:48:00.319Z,-960.71
2019-01-16T01:49:00.449Z,-959.51
2019-01-16T01:50:00.590Z,-957.70
2019-01-16T01:51:00.877Z,-958.70
2019-01-16T01:52:00.915Z,-954.88
2019-01-16T01:53:01.076Z,-957.16
2019-01-16T01:54:01.219Z,-958.40
2019-01-16T01:55:01.358Z,-958.17
2019-01-16T01:56:01.558Z,-960.66
2019-01-16T01:57:01.708Z,-960.72
2019-01-16T01:58:01.878Z,-961.53
2019-01-16T01:59:02.077Z,-958.96
2019-01-16T02:00:02.146Z,-962.01
2019-01-16T02:01:02.328Z,-963.56
2019-01-16T02:02:02.463Z,-961.51
2019-01-16T02:03:02.632Z,-908.40
2019-01-16T02:04:02.769Z,-906.99
2019-01-16T02:05:02.923Z,-954.81
2019-01-16T02:06:03.107Z,-960.85
2019-01-16T02:07:03.271Z,-959.26
2019-01-16T02:08:03.373Z,-964.50
2019-01-16T02:09:03.515Z,-960.54
2019-01-16T02:10:03.671Z,-963.22
2019-01-16T02:11:03.845Z,-957.54
2019-01-16T02:12:03.977Z,-963.75
2019-01-16T02:13:04.363Z,-959.56
2019-01-16T02:14:04.285Z,-959.57
2019-01-16T02:15:10.905Z,-956.79
2019-01-16T02:16:04.729Z,-958.77
2019-01-16T02:17:04.759Z,-956.23
2019-01-16T02:18:04.918Z,-956.58
2019-01-16T02:19:05.151Z,-958.27
2019-01-16T02:20:05.312Z,-957.25
2019-01-16T02:21:05.508Z,-953.84
2019-01-16T02:22:05.627Z,-957.11
2019-01-16T02:23:05.816Z,-960.33
2019-01-16T02:24:06.039Z,-959.27
2019-01-16T02:25:06.104Z,-962.25
2019-01-16T02:26:06.288Z,-960.03
2019-01-16T02:27:06.401Z,-958.98
2019-01-16T02:28:06.575Z,-958.04
2019-01-16T02:29:06.694Z,-960.83
2019-01-16T02:30:06.862Z,-959.13
2019-01-16T02:31:07.057Z,-957.26
2019-01-16T02:32:07.244Z,-961.68
2019-01-16T02:33:07.338Z,-961.26
2019-01-16T02:34:07.454Z,-956.93
2019-01-16T02:35:07.621Z,-963.11
2019-01-16T02:36:07.821Z,-961.87
2019-01-16T02:37:07.940Z,-961.54
2019-01-16T02:38:08.105Z,-959.61
2019-01-16T02:39:08.248Z,-958.36
2019-01-16T02:40:08.446Z,-960.74
2019-01-16T02:41:08.573Z,-963.08
2019-01-16T02:42:14.388Z,-964.45
2019-01-16T02:43:08.868Z,-962.08
2019-01-16T02:44:09.005Z,-957.59
2019-01-16T02:45:09.157Z,-960.55
2019-01-16T02:46:09.325Z,-959.05
2019-01-16T02:47:09.441Z,-959.45
2019-01-16T02:48:09.656Z,-955.99
2019-01-16T02:49:09.773Z,-960.77
2019-01-16T02:50:09.928Z,-960.01
2019-01-16T02:51:10.107Z,-945.08
2019-01-16T02:52:10.233Z,-948.61
2019-01-16T02:53:10.383Z,-951.91
2019-01-16T02:54:10.538Z,-956.77
2019-01-16T02:55:10.699Z,-957.31
2019-01-16T02:56:10.913Z,-962.93
2019-01-16T02:57:11.092Z,-957.05
2019-01-16T02:58:11.158Z,-958.12
2019-01-16T02:59:11.323Z,-960.02
2019-01-16T03:00:11.479Z,-952.12
2019-01-16T03:01:11.664Z,-960.62
2019-01-16T03:02:11.782Z,-954.44
2019-01-16T03:03:11.922Z,-962.24
2019-01-16T03:04:12.105Z,-958.43
2019-01-16T03:05:12.334Z,-957.71
2019-01-16T03:06:12.426Z,-961.42
2019-01-16T03:07:12.536Z,-956.18
2019-01-16T03:08:12.691Z,-960.85
2019-01-16T03:09:12.886Z,-958.57
2019-01-16T03:10:13.018Z,-952.16
2019-01-16T03:11:13.202Z,-954.24
2019-01-16T03:12:13.320Z,-956.15
2019-01-16T03:13:13.551Z,-958.16
2019-01-16T03:14:13.630Z,-961.52
2019-01-16T03:15:13.783Z,-958.24
2019-01-16T03:16:13.965Z,-954.09
2019-01-16T03:17:14.084Z,-958.36
2019-01-16T03:18:14.255Z,-952.31
2019-01-16T03:19:14.415Z,-959.89
2019-01-16T03:20:14.536Z,-952.56
2019-01-16T03:21:14.778Z,-957.25
2019-01-16T03:22:14.840Z,-954.88
2019-01-16T03:23:15.016Z,-954.97
2019-01-16T03:24:15.213Z,-954.06
2019-01-16T03:25:15.286Z,-952.48
2019-01-16T03:26:15.489Z,-954.60
2019-01-16T03:27:15.622Z,-958.09
2019-01-16T03:28:15.780Z,-951.53
2019-01-16T03:29:15.999Z,-953.88
2019-01-16T03:30:16.110Z,-953.82
2019-01-16T03:31:16.290Z,-954.13
2019-01-16T03:32:16.418Z,-953.61
2019-01-16T03:33:16.562Z,-956.49
2019-01-16T03:34:16.731Z,-953.90
2019-01-16T03:35:16.866Z,-948.82
2019-01-16T03:36:17.039Z,-953.65
2019-01-16T03:37:17.171Z,-951.25
2019-01-16T03:38:17.472Z,-954.95
2019-01-16T03:39:17.499Z,-953.49
2019-01-16T03:40:17.634Z,-951.63
2019-01-16T03:41:17.787Z,-950.93
2019-01-16T03:42:17.930Z,-951.89
2019-01-16T03:43:18.122Z,-948.36
2019-01-16T03:44:18.256Z,-956.27
2019-01-16T03:45:18.396Z,-953.06
2019-01-16T03:46:18.636Z,-951.84
2019-01-16T03:47:18.713Z,-954.35
2019-01-16T03:48:18.859Z,-949.58
2019-01-16T03:49:19.032Z,-954.66
2019-01-16T03:50:19.158Z,-957.02
2019-01-16T03:51:19.328Z,-954.92
2019-01-16T03:52:19.448Z,-952.25
2019-01-16T03:53:19.850Z,-951.11
2019-01-16T03:54:20.124Z,-901.13
2019-01-16T03:55:20.148Z,-900.32
2019-01-16T03:56:20.318Z,-952.12
2019-01-16T03:57:20.485Z,-951.44
2019-01-16T03:58:20.605Z,-949.99
2019-01-16T03:59:20.790Z,-954.06
2019-01-16T04:00:20.942Z,-957.14
2019-01-16T04:01:21.096Z,-950.61
2019-01-16T04:02:21.338Z,-950.63
2019-01-16T04:03:21.397Z,-951.97
2019-01-16T04:04:21.560Z,-951.49
2019-01-16T04:05:21.720Z,-954.19
2019-01-16T04:06:21.873Z,-951.49
2019-01-16T04:07:22.062Z,-952.83
2019-01-16T04:08:22.198Z,-949.29
2019-01-16T04:09:22.369Z,-951.79
2019-01-16T04:10:22.511Z,-954.55
2019-01-16T04:11:22.743Z,-951.32
2019-01-16T04:12:22.837Z,-953.15
2019-01-16T04:13:22.968Z,-951.52
2019-01-16T04:14:23.164Z,-950.49
2019-01-16T04:15:23.258Z,-951.44
2019-01-16T04:16:23.428Z,-955.13
2019-01-16T04:17:24.968Z,-952.98
2019-01-16T04:18:23.755Z,-953.49
2019-01-16T04:19:24.029Z,-953.82
2019-01-16T04:20:24.038Z,-950.76
2019-01-16T04:21:24.201Z,-951.28
2019-01-16T04:22:24.373Z,-953.50
2019-01-16T04:23:24.509Z,-953.09
2019-01-16T04:24:24.702Z,-957.27
2019-01-16T04:25:24.826Z,-952.37
2019-01-16T04:26:24.967Z,-951.42
2019-01-16T04:27:25.246Z,-953.87
2019-01-16T04:28:25.282Z,-956.21
2019-01-16T04:29:25.451Z,-951.93
2019-01-16T04:30:25.595Z,-954.39
2019-01-16T04:31:25.720Z,-951.78
2019-01-16T04:32:25.921Z,-952.60
2019-01-16T04:33:26.045Z,-953.77
2019-01-16T04:34:26.212Z,-953.17
2019-01-16T04:35:26.406Z,-956.66
2019-01-16T04:36:26.476Z,-954.22
2019-01-16T04:37:26.674Z,-955.86
2019-01-16T04:38:26.802Z,-952.75
2019-01-16T04:39:26.970Z,-954.27
2019-01-16T04:40:27.102Z,-958.18
2019-01-16T04:41:27.254Z,-956.88
2019-01-16T04:42:27.444Z,-954.55
2019-01-16T04:43:27.586Z,-953.23
2019-01-16T04:44:27.761Z,-950.67
2019-01-16T04:45:27.878Z,-949.19
2019-01-16T04:46:28.030Z,-952.21
2019-01-16T04:47:28.217Z,-951.61
2019-01-16T04:48:28.336Z,-954.95
2019-01-16T04:49:30.472Z,-954.46
2019-01-16T04:50:28.645Z,-951.32
2019-01-16T04:51:28.838Z,-951.45
2019-01-16T04:52:29.126Z,-951.46
2019-01-16T04:53:29.087Z,-953.11
2019-01-16T04:54:29.258Z,-952.55
2019-01-16T04:55:29.408Z,-954.97
2019-01-16T04:56:29.563Z,-951.25
2019-01-16T04:57:29.743Z,-952.24
2019-01-16T04:58:29.871Z,-949.89
2019-01-16T04:59:30.041Z,-950.31
2019-01-16T05:00:30.287Z,-952.06
2019-01-16T05:01:30.325Z,-958.22
2019-01-16T05:02:30.518Z,-954.23
2019-01-16T05:03:30.643Z,-956.94
2019-01-16T05:04:30.779Z,-951.36
2019-01-16T05:05:30.942Z,-954.80
2019-01-16T05:06:31.104Z,-947.68
2019-01-16T05:07:31.328Z,-951.80
2019-01-16T05:08:31.453Z,-956.43
2019-01-16T05:09:31.547Z,-950.21
2019-01-16T05:10:31.705Z,-950.32
2019-01-16T05:11:31.877Z,-949.76
2019-01-16T05:12:32.079Z,-950.30
2019-01-16T05:13:32.183Z,-953.12
2019-01-16T05:14:32.346Z,-957.36
2019-01-16T05:15:32.513Z,-944.82
2019-01-16T05:16:32.709Z,-948.48
2019-01-16T05:17:32.813Z,-949.77
2019-01-16T05:18:32.956Z,-943.19
2019-01-16T05:19:38.559Z,-949.85
2019-01-16T05:20:34.257Z,-943.21
2019-01-16T05:21:33.398Z,-950.14
2019-01-16T05:22:33.559Z,-941.44
2019-01-16T05:23:33.709Z,-952.26
2019-01-16T05:24:33.897Z,-946.39
2019-01-16T05:25:34.091Z,-950.21
2019-01-16T05:26:34.184Z,-952.28
2019-01-16T05:27:34.325Z,-950.59
2019-01-16T05:28:34.460Z,-942.70
2019-01-16T05:29:34.631Z,-951.78
2019-01-16T05:30:34.806Z,-944.44
2019-01-16T05:31:35.702Z,-941.19
2019-01-16T05:32:35.123Z,-946.02
2019-01-16T05:33:35.347Z,-935.09
2019-01-16T05:34:35.395Z,-944.18
2019-01-16T05:35:35.566Z,-949.99
2019-01-16T05:36:35.712Z,-947.34
2019-01-16T05:37:35.871Z,-950.25
2019-01-16T05:38:35.986Z,-947.27
2019-01-16T05:39:36.143Z,-947.81
2019-01-16T05:40:36.344Z,-944.28
2019-01-16T05:41:36.699Z,-952.11
2019-01-16T05:42:36.634Z,-948.23
2019-01-16T05:43:36.755Z,-953.39
2019-01-16T05:44:36.926Z,-945.73
2019-01-16T05:45:37.117Z,-952.83
2019-01-16T05:46:37.254Z,-946.52
2019-01-16T05:47:37.421Z,-951.70
2019-01-16T05:48:37.554Z,-952.13
2019-01-16T05:49:37.776Z,-944.84
2019-01-16T05:50:37.861Z,-952.34
2019-01-16T05:51:38.027Z,-951.55
2019-01-16T05:52:38.190Z,-943.64
2019-01-16T05:53:38.324Z,-941.41
2019-01-16T05:54:38.479Z,-941.02
2019-01-16T05:55:38.651Z,-948.26
2019-01-16T05:56:38.808Z,-919.36
2019-01-16T05:57:39.001Z,-894.53
2019-01-16T05:58:39.098Z,-892.42
2019-01-16T05:59:39.233Z,-948.02
2019-01-16T06:00:39.412Z,-942.59
2019-01-16T06:01:39.563Z,-948.82
2019-01-16T06:02:39.719Z,-950.81
2019-01-16T06:03:39.868Z,-938.40
2019-01-16T06:04:40.029Z,-942.17
2019-01-16T06:05:40.217Z,-947.07
2019-01-16T06:06:40.438Z,-953.62
2019-01-16T06:07:40.484Z,-962.60
2019-01-16T06:08:40.655Z,-952.34
2019-01-16T06:09:40.809Z,-950.77
2019-01-16T06:10:40.977Z,-960.05
2019-01-16T06:11:41.130Z,-950.60
2019-01-16T06:12:41.251Z,-952.66
2019-01-16T06:13:41.426Z,-948.93
2019-01-16T06:14:41.725Z,-943.10
2019-01-16T06:15:41.762Z,-932.45
2019-01-16T06:16:41.895Z,-954.42
2019-01-16T06:17:42.041Z,-944.36
2019-01-16T06:18:42.239Z,-946.00
2019-01-16T06:19:42.390Z,-942.99
2019-01-16T06:20:42.563Z,-949.22
2019-01-16T06:21:42.703Z,-955.73
2019-01-16T06:22:42.922Z,-950.20
2019-01-16T06:23:43.011Z,-951.31
2019-01-16T06:24:43.176Z,-947.44
2019-01-16T06:25:43.342Z,-901.47
2019-01-16T06:26:43.485Z,-894.87
2019-01-16T06:27:43.630Z,-890.26
2019-01-16T06:28:43.803Z,-891.95
2019-01-16T06:29:43.940Z,-900.48
2019-01-16T06:30:44.203Z,-899.57
2019-01-16T06:31:44.227Z,-899.18
2019-01-16T06:32:44.387Z,-896.38
2019-01-16T06:33:44.562Z,-902.46
2019-01-16T06:34:44.704Z,-893.86
2019-01-16T06:35:44.853Z,-896.04
2019-01-16T06:36:44.998Z,-899.27
2019-01-16T06:37:45.144Z,-887.36
2019-01-16T06:38:45.389Z,-883.36
2019-01-16T06:39:45.501Z,-887.78
2019-01-16T06:40:45.623Z,-891.65
2019-01-16T06:41:45.780Z,-886.65
2019-01-16T06:42:45.934Z,-885.57
2019-01-16T06:43:46.109Z,-897.51
2019-01-16T06:44:46.297Z,-891.48
2019-01-16T06:45:46.415Z,-891.81
2019-01-16T06:46:46.563Z,-886.94
2019-01-16T06:47:46.810Z,-889.41
2019-01-16T06:48:46.871Z,-887.71
2019-01-16T06:49:47.060Z,-879.82
2019-01-16T06:50:47.182Z,-886.78
2019-01-16T06:51:47.300Z,-887.07
2019-01-16T06:52:47.468Z,-879.25
2019-01-16T06:53:47.636Z,-888.45
2019-01-16T06:54:47.781Z,-886.60
2019-01-16T06:55:48.085Z,-884.24
2019-01-16T06:56:48.060Z,-874.84
2019-01-16T06:57:48.231Z,-886.21
2019-01-16T06:58:48.404Z,-889.04
2019-01-16T06:59:48.543Z,-891.42
2019-01-16T07:00:48.725Z,-880.15
2019-01-16T07:01:48.850Z,-883.14
2019-01-16T07:02:48.989Z,-874.47
2019-01-16T07:03:49.230Z,-875.20
2019-01-16T07:04:49.293Z,-877.15
2019-01-16T07:05:49.469Z,-882.50
2019-01-16T07:06:49.604Z,-877.63
2019-01-16T07:07:49.746Z,-878.90
2019-01-16T07:08:49.930Z,-883.71
2019-01-16T07:09:50.282Z,-888.43
2019-01-16T07:10:50.234Z,-879.91
2019-01-16T07:11:50.409Z,-878.62
2019-01-16T07:12:50.507Z,-884.76
2019-01-16T07:13:50.667Z,-884.52
2019-01-16T07:14:50.800Z,-933.84
2019-01-16T07:15:50.985Z,-934.88
2019-01-16T07:16:51.139Z,-929.09
2019-01-16T07:17:51.298Z,-924.98
2019-01-16T07:18:51.467Z,-935.13
2019-01-16T07:19:51.630Z,-932.51
2019-01-16T07:20:51.783Z,-939.71
2019-01-16T07:21:51.922Z,-932.97
2019-01-16T07:22:56.449Z,-939.42
2019-01-16T07:23:52.249Z,-931.75
2019-01-16T07:24:54.388Z,-936.37
2019-01-16T07:25:52.540Z,-934.20
2019-01-16T07:26:52.710Z,-925.62
2019-01-16T07:27:52.852Z,-940.55
2019-01-16T07:28:53.160Z,-933.29
2019-01-16T07:29:53.133Z,-936.71
2019-01-16T07:30:53.317Z,-886.66
2019-01-16T07:31:53.473Z,-881.35
2019-01-16T07:32:53.605Z,-886.87
2019-01-16T07:33:53.781Z,-885.34
2019-01-16T07:34:53.912Z,-892.70
2019-01-16T07:35:54.088Z,-881.93
2019-01-16T07:36:54.358Z,-889.52
2019-01-16T07:37:54.369Z,-887.48
2019-01-16T07:38:54.552Z,-875.83
2019-01-16T07:39:54.679Z,-887.54
2019-01-16T07:40:54.834Z,-880.36
2019-01-16T07:41:54.985Z,-886.72
2019-01-16T07:42:55.158Z,-886.47
2019-01-16T07:43:55.308Z,-881.84
2019-01-16T07:44:55.478Z,-884.53
2019-01-16T07:45:55.597Z,-874.34
2019-01-16T07:46:55.741Z,-878.14
2019-01-16T07:47:55.878Z,-882.23
2019-01-16T07:48:56.064Z,-877.82
2019-01-16T07:49:56.202Z,-874.93
2019-01-16T07:50:56.373Z,-880.81
2019-01-16T07:51:56.527Z,-877.50
2019-01-16T07:52:56.696Z,-882.98
2019-01-16T07:53:56.809Z,-859.61
2019-01-16T07:54:56.972Z,-879.00
2019-01-16T07:55:57.147Z,-864.87
2019-01-16T07:56:57.303Z,-877.03
2019-01-16T07:57:57.443Z,-882.39
2019-01-16T07:58:57.613Z,-885.22
2019-01-16T07:59:57.729Z,-890.52
2019-01-16T08:00:57.931Z,-873.49
2019-01-16T08:01:58.188Z,-880.80
2019-01-16T08:02:59.716Z,-872.20
2019-01-16T08:03:58.390Z,-878.55
2019-01-16T08:04:58.527Z,-879.00
2019-01-16T08:05:58.704Z,-875.45
2019-01-16T08:06:58.867Z,-886.13
2019-01-16T08:07:59.007Z,-880.32
2019-01-16T08:08:59.177Z,-875.10
2019-01-16T08:09:59.429Z,-877.77
2019-01-16T08:10:59.475Z,-873.94
2019-01-16T08:11:59.624Z,-881.88
2019-01-16T08:12:59.763Z,-886.36
2019-01-16T08:13:59.940Z,-884.97
2019-01-16T08:15:00.066Z,-880.72
2019-01-16T08:16:00.257Z,-877.20
2019-01-16T08:17:00.433Z,-873.73
2019-01-16T08:18:00.643Z,-888.58
2019-01-16T08:19:00.699Z,-882.65
2019-01-16T08:20:00.864Z,-886.81
2019-01-16T08:21:01.003Z,-884.71
2019-01-16T08:22:01.179Z,-880.34
2019-01-16T08:23:01.309Z,-880.95
2019-01-16T08:24:01.471Z,-881.85
2019-01-16T08:25:01.636Z,-881.73
2019-01-16T08:26:01.840Z,-888.35
2019-01-16T08:27:01.954Z,-886.17
2019-01-16T08:28:02.110Z,-885.83
2019-01-16T08:29:02.267Z,-884.38
2019-01-16T08:30:02.433Z,-886.00
2019-01-16T08:31:02.595Z,-879.83
2019-01-16T08:32:02.737Z,-884.63
2019-01-16T08:33:02.859Z,-892.16
2019-01-16T08:34:03.050Z,-880.34
2019-01-16T08:35:03.231Z,-882.18
2019-01-16T08:36:03.346Z,-867.58
2019-01-16T08:37:03.652Z,-869.05
2019-01-16T08:38:03.630Z,-886.15
2019-01-16T08:39:03.797Z,-885.03
2019-01-16T08:40:03.969Z,-882.97
2019-01-16T08:41:04.142Z,-886.77
2019-01-16T08:42:04.323Z,-885.98
2019-01-16T08:43:04.541Z,-883.84
2019-01-16T08:44:04.572Z,-890.43
2019-01-16T08:45:04.740Z,-889.06
2019-01-16T08:46:04.888Z,-881.98
2019-01-16T08:47:05.278Z,-882.12
2019-01-16T08:48:05.173Z,-881.94
2019-01-16T08:49:05.332Z,-884.97
2019-01-16T08:50:05.502Z,-880.36
2019-01-16T08:51:05.719Z,-887.82
2019-01-16T08:52:05.831Z,-888.92
2019-01-16T08:53:05.948Z,-887.80
2019-01-16T08:54:06.105Z,-881.12
2019-01-16T08:55:06.291Z,-876.00
2019-01-16T08:56:06.427Z,-886.60
2019-01-16T08:57:06.623Z,-887.39
2019-01-16T08:58:06.751Z,-884.36
2019-01-16T08:59:06.963Z,-890.46
2019-01-16T09:00:07.034Z,-889.95
2019-01-16T09:01:07.202Z,-894.22
2019-01-16T09:02:07.369Z,-886.91
2019-01-16T09:03:07.965Z,-887.28
2019-01-16T09:04:07.657Z,-888.40
2019-01-16T09:05:07.831Z,-891.13
2019-01-16T09:06:07.950Z,-894.21
2019-01-16T09:07:08.202Z,-893.16
2019-01-16T09:08:08.280Z,-889.75
2019-01-16T09:09:08.410Z,-887.73
2019-01-16T09:10:08.580Z,-886.29
2019-01-16T09:11:08.707Z,-889.09
2019-01-16T09:12:08.884Z,-884.28
2019-01-16T09:13:09.040Z,-882.75
2019-01-16T09:14:09.188Z,-889.26
2019-01-16T09:15:09.432Z,-885.21
2019-01-16T09:16:09.532Z,-883.95
2019-01-16T09:17:09.657Z,-890.89
2019-01-16T09:18:09.804Z,-892.34
2019-01-16T09:19:09.959Z,-892.61
2019-01-16T09:20:10.130Z,-894.07
2019-01-16T09:21:10.261Z,-896.74
2019-01-16T09:22:10.433Z,-899.68
2019-01-16T09:23:10.559Z,-892.49
2019-01-16T09:24:10.820Z,-883.71
2019-01-16T09:25:10.891Z,-881.05
2019-01-16T09:26:11.022Z,-875.01
2019-01-16T09:27:11.178Z,-880.56
2019-01-16T09:28:11.348Z,-884.97
2019-01-16T09:29:11.526Z,-894.07
2019-01-16T09:30:11.688Z,-889.48
2019-01-16T09:31:11.832Z,-890.10
2019-01-16T09:32:12.107Z,-889.40
2019-01-16T09:33:12.126Z,-884.40
2019-01-16T09:34:12.313Z,-881.20
2019-01-16T09:35:12.469Z,-880.74
2019-01-16T09:36:12.607Z,-886.23
2019-01-16T09:37:12.760Z,-883.81
2019-01-16T09:38:12.930Z,-883.49
2019-01-16T09:39:13.068Z,-879.37
2019-01-16T09:40:13.292Z,-888.72
2019-01-16T09:41:13.356Z,-884.61
2019-01-16T09:42:13.521Z,-888.99
2019-01-16T09:43:13.695Z,-889.21
2019-01-16T09:44:13.845Z,-890.36
2019-01-16T09:45:13.989Z,-893.26
2019-01-16T09:46:14.132Z,-892.86
2019-01-16T09:47:14.315Z,-890.91
2019-01-16T09:48:14.729Z,-889.49
2019-01-16T09:49:14.606Z,-892.83
2019-01-16T09:50:14.770Z,-887.84
2019-01-16T09:51:14.887Z,-886.92
2019-01-16T09:52:15.056Z,-887.61
2019-01-16T09:53:15.231Z,-887.38
2019-01-16T09:54:15.378Z,-879.35
2019-01-16T09:55:15.528Z,-887.83
2019-01-16T09:56:15.682Z,-861.92
2019-01-16T09:57:15.847Z,-853.31
2019-01-16T09:58:15.996Z,-886.53
2019-01-16T09:59:16.140Z,-885.80
2019-01-16T10:00:16.298Z,-895.89
2019-01-16T10:01:16.427Z,-912.77
2019-01-16T10:02:16.567Z,-882.38
2019-01-16T10:03:16.758Z,-889.50
2019-01-16T10:04:16.913Z,-884.57
2019-01-16T10:05:17.167Z,-885.84
2019-01-16T10:06:17.179Z,-887.69
2019-01-16T10:07:17.348Z,-893.46
2019-01-16T10:08:17.531Z,-894.22
2019-01-16T10:09:17.690Z,-893.18
2019-01-16T10:10:17.841Z,-913.87
2019-01-16T10:11:17.978Z,-890.31
2019-01-16T10:12:18.116Z,-890.86
2019-01-16T10:13:18.387Z,-892.45
2019-01-16T10:14:18.439Z,-893.31
2019-01-16T10:15:18.594Z,-880.94
2019-01-16T10:16:18.728Z,-886.82
2019-01-16T10:17:18.884Z,-900.49
2019-01-16T10:18:19.038Z,-898.83
2019-01-16T10:19:19.211Z,-893.74
2019-01-16T10:20:19.382Z,-895.78
2019-01-16T10:21:19.567Z,-894.60
2019-01-16T10:22:19.648Z,-895.03
2019-01-16T10:23:20.044Z,-894.37
2019-01-16T10:24:19.961Z,-893.05
2019-01-16T10:25:20.108Z,-896.48
2019-01-16T10:26:20.259Z,-895.53
2019-01-16T10:27:20.416Z,-899.20
2019-01-16T10:28:20.592Z,-892.83
2019-01-16T10:29:20.786Z,-894.17
2019-01-16T10:30:20.914Z,-893.92
2019-01-16T10:31:21.025Z,-895.65
2019-01-16T10:32:21.184Z,-890.22
2019-01-16T10:33:21.339Z,-889.99
2019-01-16T10:34:21.499Z,-878.20
2019-01-16T10:35:21.653Z,-887.40
2019-01-16T10:36:21.783Z,-889.30
2019-01-16T10:37:21.967Z,-891.38
2019-01-16T10:38:22.242Z,-890.71
2019-01-16T10:39:22.266Z,-895.39
2019-01-16T10:40:22.393Z,-891.09
2019-01-16T10:41:22.582Z,-899.83
2019-01-16T10:42:22.753Z,-896.66
2019-01-16T10:43:22.919Z,-902.31
2019-01-16T10:44:23.062Z,-849.04
2019-01-16T10:45:23.205Z,-884.91
2019-01-16T10:46:23.500Z,-888.72
2019-01-16T10:47:23.535Z,-898.34
2019-01-16T10:48:23.704Z,-901.10
2019-01-16T10:49:23.857Z,-895.44
2019-01-16T10:50:23.995Z,-894.08
2019-01-16T10:51:24.160Z,-909.61
2019-01-16T10:52:24.285Z,-898.87
2019-01-16T10:53:24.466Z,-906.40
2019-01-16T10:54:24.688Z,-900.30
2019-01-16T10:55:24.741Z,-866.92
2019-01-16T10:56:24.910Z,-846.98
2019-01-16T10:57:25.040Z,-896.49
2019-01-16T10:58:25.221Z,-849.36
2019-01-16T10:59:25.391Z,-895.61
2019-01-16T11:00:25.530Z,-943.81
2019-01-16T11:01:25.695Z,-896.23
2019-01-16T11:02:25.871Z,-901.46
2019-01-16T11:03:25.963Z,-884.25
2019-01-16T11:04:26.145Z,-905.15
2019-01-16T11:05:26.274Z,-838.88
2019-01-16T11:06:26.453Z,-905.54
2019-01-16T11:07:26.596Z,-885.99
2019-01-16T11:08:26.766Z,-882.13
2019-01-16T11:09:26.902Z,-896.52
2019-01-16T11:10:27.107Z,-889.87
2019-01-16T11:11:27.317Z,-895.94
2019-01-16T11:12:27.377Z,-873.05
2019-01-16T11:13:27.577Z,-805.33
2019-01-16T11:14:27.674Z,-894.72
2019-01-16T11:15:27.853Z,-893.06
2019-01-16T11:16:28.019Z,-882.17
2019-01-16T11:17:28.160Z,-886.68
2019-01-16T11:18:28.334Z,-888.62
2019-01-16T11:19:28.565Z,-893.31
2019-01-16T11:20:28.636Z,-893.90
2019-01-16T11:21:28.786Z,-889.62
2019-01-16T11:22:28.920Z,-889.55
2019-01-16T11:23:29.085Z,-891.56
2019-01-16T11:24:29.223Z,-891.43
2019-01-16T11:25:29.378Z,-896.29
2019-01-16T11:26:29.556Z,-896.69
2019-01-16T11:27:29.804Z,-895.13
2019-01-16T11:28:29.865Z,-890.51
2019-01-16T11:29:30.003Z,-893.02
2019-01-16T11:30:30.161Z,-884.25
2019-01-16T11:31:30.326Z,-891.80
2019-01-16T11:32:30.482Z,-890.89
2019-01-16T11:33:30.649Z,-893.41
2019-01-16T11:34:30.792Z,-894.53
2019-01-16T11:35:30.990Z,-893.51
2019-01-16T11:36:31.074Z,-892.90
2019-01-16T11:37:31.235Z,-895.13
2019-01-16T11:38:31.421Z,-890.20
2019-01-16T11:39:31.557Z,-885.43
2019-01-16T11:40:31.727Z,-890.91
2019-01-16T11:41:31.878Z,-890.89
2019-01-16T11:42:32.013Z,-889.34
2019-01-16T11:43:32.191Z,-891.80
2019-01-16T11:44:32.334Z,-892.83
2019-01-16T11:45:32.518Z,-895.79
2019-01-16T11:46:32.668Z,-889.97
2019-01-16T11:47:32.804Z,-893.92
2019-01-16T11:48:32.943Z,-889.09
2019-01-16T11:49:33.124Z,-890.49
2019-01-16T11:50:33.311Z,-887.44
2019-01-16T11:51:33.804Z,-891.60
2019-01-16T11:52:33.688Z,-894.70
2019-01-16T11:53:33.738Z,-891.92
2019-01-16T11:54:33.918Z,-883.54
2019-01-16T11:55:34.072Z,-886.90
2019-01-16T11:56:34.218Z,-891.09
2019-01-16T11:57:34.363Z,-892.79
2019-01-16T11:58:34.520Z,-893.88
2019-01-16T11:59:34.672Z,-889.42
2019-01-16T12:00:34.940Z,-893.84
2019-01-16T12:01:34.990Z,-895.04
2019-01-16T12:02:38.489Z,-895.52
2019-01-16T12:03:35.282Z,-889.62
2019-01-16T12:04:35.444Z,-891.18
2019-01-16T12:05:35.606Z,-890.15
2019-01-16T12:06:35.780Z,-891.18
2019-01-16T12:07:35.918Z,-891.37